Time;durP1;ratioP1;P1;durP2;ratioP2;P2;SDS_P1;SDS_P2;PMS_P1;PMS_P2;Temp;Humidity;BMP_temperature;BMP_pressure;BME280_temperature;BME280_humidity;BME280_pressure;Samples;Min_cycle;Max_cycle;Signal;HPM_P1;HPM_P2
2023/05/27 00:01:26;;;;;;;12.32;6.28;;;;;;;16.06;100.00;100286.53;4894132;29;20104;-69
2023/05/27 00:03:51;;;;;;;11.55;6.88;;;;;;;15.96;100.00;100288.16;4881536;29;20032;-68
2023/05/27 00:06:17;;;;;;;11.50;6.45;;;;;;;15.97;100.00;100297.69;4893818;29;20036;-68
2023/05/27 00:08:42;;;;;;;8.80;5.90;;;;;;;15.68;100.00;100211.44;4893281;29;20459;-68
2023/05/27 00:11:08;;;;;;;9.77;5.60;;;;;;;16.25;100.00;100300.63;4891837;29;20377;-69
2023/05/27 00:13:33;;;;;;;9.25;5.90;;;;;;;16.34;100.00;100299.88;4893070;29;20108;-68
2023/05/27 00:15:58;;;;;;;12.35;5.65;;;;;;;16.33;100.00;100278.13;4895003;29;20028;-68
2023/05/27 00:18:24;;;;;;;9.48;5.70;;;;;;;16.23;100.00;100257.19;4895016;29;20033;-68
2023/05/27 00:20:50;;;;;;;12.57;6.10;;;;;;;16.45;100.00;100289.56;4895103;29;20048;-68
2023/05/27 00:23:15;;;;;;;11.82;5.45;;;;;;;16.12;100.00;100231.91;4895034;29;20107;-68
2023/05/27 00:25:40;;;;;;;11.48;5.75;;;;;;;16.49;100.00;100286.13;4895006;29;20131;-68
2023/05/27 00:28:06;;;;;;;11.95;5.85;;;;;;;16.54;100.00;100291.38;4895344;29;20431;-67
2023/05/27 00:30:32;;;;;;;7.80;5.38;;;;;;;16.51;100.00;100276.59;4895034;29;20112;-69
2023/05/27 00:32:57;;;;;;;9.13;5.40;;;;;;;16.64;100.00;100293.22;4893555;29;20039;-70
2023/05/27 00:35:23;;;;;;;10.85;5.38;;;;;;;16.64;100.00;100280.19;4893988;29;20059;-71
2023/05/27 00:37:49;;;;;;;8.88;5.00;;;;;;;15.88;100.00;100167.44;4893688;29;20043;-72
2023/05/27 00:40:18;;;;;;;8.90;4.78;;;;;;;16.60;100.00;100271.47;4894333;29;20037;-71
2023/05/27 00:42:44;;;;;;;8.40;5.22;;;;;;;16.69;100.00;100280.22;4894970;29;20380;-71
2023/05/27 00:45:10;;;;;;;9.02;5.22;;;;;;;16.57;100.00;100289.66;4878401;29;20025;-70
2023/05/27 00:47:35;;;;;;;7.95;4.90;;;;;;;16.34;100.00;100290.31;4894942;29;20111;-70
2023/05/27 00:50:03;;;;;;;8.68;5.05;;;;;;;16.13;100.00;100270.09;4894794;29;20036;-71
2023/05/27 00:52:29;;;;;;;8.13;5.05;;;;;;;16.17;100.00;100277.13;4894367;29;20029;-73
2023/05/27 00:54:56;;;;;;;9.60;5.40;;;;;;;16.24;100.00;100272.84;4894659;29;20487;-69
2023/05/27 00:57:22;;;;;;;8.75;5.18;;;;;;;16.29;100.00;100271.16;4895033;29;20407;-69
2023/05/27 00:59:47;;;;;;;10.23;5.32;;;;;;;16.38;100.00;100269.50;4894778;29;20033;-70
2023/05/27 01:02:13;;;;;;;7.68;4.80;;;;;;;16.26;100.00;100239.88;4894867;29;20040;-70
2023/05/27 01:04:38;;;;;;;6.32;4.88;;;;;;;16.01;100.00;100203.16;4894652;29;20040;-71
2023/05/27 01:07:10;;;;;;;11.43;5.00;;;;;;;16.29;100.00;100271.16;4894007;29;20120;-69
2023/05/27 01:09:47;;;;;;;9.68;4.70;;;;;;;15.81;100.00;100241.06;4877964;29;20033;-69
2023/05/27 01:12:12;;;;;;;14.82;5.32;;;;;;;15.31;100.00;100205.75;4896564;29;20468;-69
2023/05/27 01:14:41;;;;;;;6.93;5.05;;;;;;;15.66;100.00;100279.09;4897973;29;20084;-71
2023/05/27 01:17:09;;;;;;;9.93;5.15;;;;;;;15.72;100.00;100280.03;4897671;29;20037;-72
2023/05/27 01:19:40;;;;;;;8.18;4.90;;;;;;;15.80;100.00;100275.75;4898029;29;20052;-69
2023/05/27 01:22:07;;;;;;;8.02;4.93;;;;;;;15.71;100.00;100276.53;4897854;29;20036;-73
2023/05/27 01:24:33;;;;;;;7.32;4.95;;;;;;;15.33;100.00;100236.13;4897958;29;20036;-70
2023/05/27 01:27:00;;;;;;;8.18;5.70;;;;;;;15.48;100.00;100258.03;4897723;29;20035;-69
2023/05/27 01:29:26;;;;;;;9.50;5.43;;;;;;;15.42;100.00;100251.00;4864886;29;20108;-70
2023/05/27 01:32:27;;;;;;;9.15;5.10;;;;;;;15.46;100.00;100265.78;4857167;29;20042;-73
2023/05/27 01:35:06;;;;;;;8.77;5.28;;;;;;;15.47;100.00;100258.88;4785140;30;20053;-71
2023/05/27 01:37:38;;;;;;;8.65;5.15;;;;;;;15.49;100.00;100272.78;4785193;30;20450;-69
2023/05/27 01:40:06;;;;;;;11.30;5.15;;;;;;;15.42;100.00;100260.53;4773144;30;20039;-70
2023/05/27 01:42:37;;;;;;;8.27;4.55;;;;;;;15.47;100.00;100251.94;4784636;30;20047;-72
2023/05/27 01:45:05;;;;;;;9.43;4.65;;;;;;;15.49;100.00;100255.44;4785024;30;20124;-71
2023/05/27 01:47:31;;;;;;;9.77;4.93;;;;;;;15.53;100.00;100256.34;4784830;30;20098;-69
2023/05/27 01:49:56;;;;;;;9.98;5.00;;;;;;;15.52;100.00;100255.47;4785038;30;20118;-71
2023/05/27 01:52:22;;;;;;;10.68;5.10;;;;;;;15.67;100.00;100273.00;4784714;30;20130;-69
2023/05/27 01:54:47;;;;;;;7.30;4.72;;;;;;;15.64;100.00;100272.97;4784560;30;20043;-71
2023/05/27 01:57:13;;;;;;;10.32;4.95;;;;;;;15.71;100.00;100279.13;4772046;30;20070;-69
2023/05/27 01:59:38;;;;;;;10.43;4.95;;;;;;;15.55;100.00;100257.22;4775263;30;20058;-68
2023/05/27 02:02:05;;;;;;;10.27;5.28;;;;;;;15.73;100.00;100290.44;4787213;29;20129;-71
2023/05/27 02:04:30;;;;;;;7.00;4.88;;;;;;;15.52;100.00;100267.59;4787327;29;20039;-70
2023/05/27 02:06:56;;;;;;;7.80;5.50;;;;;;;15.50;100.00;100279.72;4787210;29;20034;-69
2023/05/27 02:09:21;;;;;;;6.35;5.38;;;;;;;15.14;100.00;100224.63;4802090;29;20459;-70
2023/05/27 02:11:46;;;;;;;7.80;5.95;;;;;;;15.31;100.00;100269.03;4873184;29;21516;-73
2023/05/27 02:14:13;;;;;;;10.90;5.80;;;;;;;15.29;100.00;100282.88;4896737;29;20028;-73
2023/05/27 02:16:39;;;;;;;7.75;5.85;;;;;;;15.13;100.00;100261.00;4896836;29;20177;-72
2023/05/27 02:19:05;;;;;;;11.73;6.50;;;;;;;15.27;100.00;100272.47;4896728;29;20029;-71
2023/05/27 02:21:31;;;;;;;12.38;5.80;;;;;;;15.12;100.00;100238.44;4879906;29;20036;-70
2023/05/27 02:23:56;;;;;;;9.85;6.32;;;;;;;14.95;100.00;100214.78;4895724;29;20024;-69
2023/05/27 02:26:22;;;;;;;9.85;5.68;;;;;;;15.10;100.00;100246.19;4896966;29;20462;-70
2023/05/27 02:28:47;;;;;;;11.68;5.97;;;;;;;15.14;100.00;100248.03;4879819;29;20036;-69
2023/05/27 02:31:13;;;;;;;14.05;6.32;;;;;;;15.14;100.00;100260.13;4896304;29;20053;-69
2023/05/27 02:33:38;;;;;;;9.75;5.57;;;;;;;15.27;100.00;100287.22;4896736;29;20487;-71
2023/05/27 02:36:04;;;;;;;10.85;6.40;;;;;;;14.88;100.00;100211.25;4896403;29;20099;-72
2023/05/27 02:38:30;;;;;;;8.82;5.25;;;;;;;15.26;100.00;100272.44;4894295;29;20035;-69
2023/05/27 02:40:55;;;;;;;9.48;5.60;;;;;;;14.85;100.00;100195.59;4894444;29;20083;-70
2023/05/27 02:43:21;;;;;;;11.48;6.78;;;;;;;15.44;100.00;100287.44;4894443;29;20794;-70
2023/05/27 02:45:46;;;;;;;12.85;6.22;;;;;;;15.33;100.00;100272.56;4894142;29;20104;-73
2023/05/27 02:48:11;;;;;;;8.90;5.93;;;;;;;15.39;100.00;100276.09;4894459;29;20476;-70
2023/05/27 02:50:37;;;;;;;9.52;6.22;;;;;;;15.27;100.00;100253.41;4894532;29;20157;-71
2023/05/27 02:53:02;;;;;;;9.63;6.25;;;;;;;15.45;100.00;100276.19;4877151;29;20036;-68
2023/05/27 02:55:28;;;;;;;9.68;6.70;;;;;;;15.50;100.00;100285.81;4894074;29;20044;-70
2023/05/27 02:57:53;;;;;;;9.18;6.03;;;;;;;15.49;100.00;100270.19;4894218;29;20025;-69
2023/05/27 03:00:18;;;;;;;10.38;6.20;;;;;;;15.63;100.00;100285.97;4894514;29;20035;-73
2023/05/27 03:02:44;;;;;;;10.13;5.97;;;;;;;15.56;100.00;100260.72;4893869;29;20735;-70
2023/05/27 03:05:10;;;;;;;8.75;5.80;;;;;;;15.60;100.00;100266.00;4894025;29;20020;-69
2023/05/27 03:07:35;;;;;;;10.48;6.00;;;;;;;15.74;100.00;100276.56;4894100;29;20028;-72
2023/05/27 03:10:00;;;;;;;10.77;5.90;;;;;;;15.79;100.00;100287.06;4895576;29;20032;-69
2023/05/27 03:12:27;;;;;;;16.33;6.68;;;;;;;15.78;100.00;100287.91;4894240;29;20032;-69
2023/05/27 03:14:52;;;;;;;9.00;6.00;;;;;;;15.52;100.00;100272.81;4894112;29;20112;-70
2023/05/27 03:17:20;;;;;;;8.40;6.13;;;;;;;15.55;100.00;100278.03;4893710;29;20061;-73
2023/05/27 03:19:45;;;;;;;10.25;6.10;;;;;;;15.15;100.00;100233.28;4877246;29;20541;-68
2023/05/27 03:22:11;;;;;;;10.02;5.43;;;;;;;15.37;100.00;100263.94;4893614;29;20105;-70
2023/05/27 03:24:36;;;;;;;11.30;6.13;;;;;;;15.03;100.00;100205.41;4894532;29;20036;-69
2023/05/27 03:27:03;;;;;;;12.10;5.85;;;;;;;15.35;100.00;100265.66;4894707;29;20032;-69
2023/05/27 03:29:29;;;;;;;14.02;6.38;;;;;;;15.36;100.00;100290.81;4893421;29;20847;-70
2023/05/27 03:31:55;;;;;;;9.65;6.63;;;;;;;15.18;100.00;100290.56;4894463;29;20039;-71
2023/05/27 03:34:20;;;;;;;13.38;6.30;;;;;;;15.20;100.00;100299.22;4895352;29;20040;-68
2023/05/27 03:36:46;;;;;;;9.75;6.22;;;;;;;15.26;100.00;100299.31;4894627;29;20059;-72
2023/05/27 03:39:14;;;;;;;6.75;6.03;;;;;;;14.93;100.00;100221.69;4878450;29;20029;-70
2023/05/27 03:41:41;;;;;;;12.40;6.95;;;;;;;15.33;100.00;100282.09;4894829;29;20033;-71
2023/05/27 03:44:06;;;;;;;13.05;6.50;;;;;;;15.41;100.00;100293.47;4895097;29;20103;-69
2023/05/27 03:46:32;;;;;;;13.57;7.25;;;;;;;15.31;100.00;100300.25;4849804;29;20123;-69
2023/05/27 03:48:57;;;;;;;10.00;7.10;;;;;;;15.15;100.00;100283.56;4895144;29;20032;-69
2023/05/27 03:51:23;;;;;;;9.75;6.95;;;;;;;15.23;100.00;100299.28;4895098;29;20032;-70
2023/05/27 03:53:48;;;;;;;13.55;7.18;;;;;;;15.29;100.00;100301.09;4878411;29;20043;-68
2023/05/27 03:56:14;;;;;;;10.40;6.93;;;;;;;15.32;100.00;100315.00;4894984;29;20419;-70
2023/05/27 03:58:40;;;;;;;11.93;6.80;;;;;;;15.35;100.00;100330.69;4895266;29;20123;-70
2023/05/27 04:01:05;;;;;;;9.55;7.43;;;;;;;15.35;100.00;100309.88;4895222;29;20036;-70
2023/05/27 04:03:31;;;;;;;10.55;7.18;;;;;;;15.39;100.00;100297.78;4894992;29;20104;-69
2023/05/27 04:05:58;;;;;;;10.40;6.70;;;;;;;15.59;100.00;100313.69;4893933;29;20068;-69
2023/05/27 04:08:26;;;;;;;11.60;6.93;;;;;;;15.65;100.00;100318.06;4895186;29;20036;-69
2023/05/27 04:10:55;;;;;;;8.07;6.35;;;;;;;15.63;100.00;100317.22;4894395;29;20472;-68
2023/05/27 04:13:21;;;;;;;10.27;6.90;;;;;;;15.39;100.00;100304.69;4895179;29;20036;-69
2023/05/27 04:15:46;;;;;;;10.85;7.88;;;;;;;15.59;100.00;100324.09;4893823;29;20080;-71
2023/05/27 04:18:12;;;;;;;11.02;6.95;;;;;;;15.73;100.00;100315.59;4894232;29;20043;-69
2023/05/27 04:20:40;;;;;;;8.90;7.63;;;;;;;15.83;100.00;100320.97;4894055;29;20067;-69
2023/05/27 04:23:08;;;;;;;14.10;7.45;;;;;;;15.46;100.00;100244.97;4895150;29;20052;-69
2023/05/27 04:25:34;;;;;;;12.80;7.32;;;;;;;15.99;100.00;100324.63;4894719;29;20028;-68
2023/05/27 04:28:03;;;;;;;14.05;7.03;;;;;;;16.01;100.00;100303.81;4895056;29;20460;-69
2023/05/27 04:30:29;;;;;;;9.68;6.45;;;;;;;16.09;100.00;100319.56;4894430;29;20052;-70
2023/05/27 04:32:55;;;;;;;10.15;6.53;;;;;;;16.16;100.00;100322.25;4894704;29;20035;-69
2023/05/27 04:35:21;;;;;;;12.68;7.05;;;;;;;16.11;100.00;100334.34;4877348;29;20103;-68
2023/05/27 04:37:47;;;;;;;10.85;6.78;;;;;;;16.01;100.00;100296.91;4895058;29;20053;-68
2023/05/27 04:40:13;;;;;;;8.27;5.72;;;;;;;16.33;100.00;100332.84;4894994;29;20036;-72
2023/05/27 04:42:38;;;;;;;10.00;6.35;;;;;;;16.45;100.00;100323.44;4895127;29;20538;-69
2023/05/27 04:45:05;;;;;;;13.32;6.63;;;;;;;16.51;100.00;100323.50;4894683;29;20053;-69
2023/05/27 04:47:36;;;;;;;18.20;7.63;;;;;;;16.62;100.00;100331.41;4897424;29;20419;-69
2023/05/27 04:50:03;;;;;;;10.25;6.35;;;;;;;16.61;100.00;100337.47;4898439;29;20116;-70
2023/05/27 04:52:29;;;;;;;10.48;6.93;;;;;;;16.47;100.00;100311.28;4881791;29;20088;-72
2023/05/27 04:54:55;;;;;;;11.35;7.57;;;;;;;16.50;100.00;100313.94;4865110;29;20041;-69
2023/05/27 04:57:22;;;;;;;12.02;7.43;;;;;;;16.51;100.00;100323.50;4898458;29;20032;-70
2023/05/27 04:59:58;;;;;;;12.07;7.32;;;;;;;16.65;100.00;100341.88;4898204;29;20463;-69
2023/05/27 05:02:33;;;;;;;8.95;7.50;;;;;;;16.63;100.00;100341.84;4897807;29;20037;-70
2023/05/27 05:04:59;;;;;;;14.25;7.95;;;;;;;16.41;100.00;100290.38;4898583;29;20435;-71
2023/05/27 05:07:25;;;;;;;10.93;7.80;;;;;;;16.81;100.00;100342.91;4881377;29;20498;-69
2023/05/27 05:09:50;;;;;;;13.48;8.18;;;;;;;16.76;100.00;100334.13;4898291;29;20108;-70
2023/05/27 05:12:16;;;;;;;9.10;7.53;;;;;;;16.34;100.00;100247.75;4898105;29;20032;-69
2023/05/27 05:14:41;;;;;;;13.95;7.78;;;;;;;16.90;100.00;100326.47;4898248;29;20037;-73
2023/05/27 05:17:06;;;;;;;9.07;6.93;;;;;;;16.66;100.00;100271.50;4898481;29;20033;-76
2023/05/27 05:19:32;;;;;;;11.30;9.32;;;;;;;17.10;100.00;100350.13;4898156;29;20020;-71
2023/05/27 05:21:57;;;;;;;17.38;13.23;;;;;;;17.12;100.00;100344.06;4897740;29;20064;-71
2023/05/27 05:24:23;;;;;;;15.02;9.65;;;;;;;17.15;100.00;100351.03;4897947;29;20024;-71
2023/05/27 05:26:48;;;;;;;14.05;11.10;;;;;;;17.14;100.00;100344.06;4880979;29;20036;-71
2023/05/27 05:29:13;;;;;;;13.13;9.43;;;;;;;17.10;100.00;100335.34;4880856;29;20059;-72
2023/05/27 05:31:41;;;;;;;12.18;7.90;;;;;;;17.27;100.00;100358.97;4897658;29;20036;-75
2023/05/27 05:34:06;;;;;;;11.57;9.52;;;;;;;17.32;100.00;100358.13;4864809;29;20045;-71
2023/05/27 05:36:33;;;;;;;12.90;8.88;;;;;;;17.13;100.00;100356.25;4897763;29;20027;-70
2023/05/27 05:38:59;;;;;;;15.02;8.82;;;;;;;16.83;100.00;100328.13;4897850;29;20087;-71
2023/05/27 05:41:25;;;;;;;11.27;9.23;;;;;;;17.12;100.00;100358.81;4897323;29;20033;-71
2023/05/27 05:43:52;;;;;;;11.80;8.63;;;;;;;17.13;100.00;100344.94;4860319;29;20079;-72
2023/05/27 05:46:17;;;;;;;12.98;7.70;;;;;;;17.19;100.00;100359.78;4897609;29;20115;-71
2023/05/27 05:48:42;;;;;;;15.05;8.77;;;;;;;17.17;100.00;100336.28;4897548;29;20036;-70
2023/05/27 05:51:08;;;;;;;13.20;8.25;;;;;;;17.28;100.00;100352.91;4897617;29;20028;-70
2023/05/27 05:53:33;;;;;;;11.43;8.27;;;;;;;17.20;100.00;100331.06;4897192;29;20055;-70
2023/05/27 05:55:59;;;;;;;13.23;8.45;;;;;;;17.53;100.00;100368.69;4897598;29;20560;-71
2023/05/27 05:58:24;;;;;;;8.57;7.63;;;;;;;17.23;100.00;100304.13;4896459;29;20045;-70
2023/05/27 06:00:50;;;;;;;10.57;7.55;;;;;;;17.46;100.00;100341.69;4897011;29;20103;-71
2023/05/27 06:03:15;;;;;;;14.38;8.02;;;;;;;17.35;100.00;100304.22;4897059;29;20057;-71
2023/05/27 06:05:41;;;;;;;9.50;7.72;;;;;;;17.64;100.00;100363.56;4897380;29;20039;-71
2023/05/27 06:08:06;;;;;;;12.27;8.38;;;;;;;17.53;100.00;100339.13;4897103;29;20027;-76
2023/05/27 06:10:32;;;;;;;11.85;8.55;;;;;;;17.74;100.00;100364.50;4897401;29;20057;-72
2023/05/27 06:12:57;;;;;;;10.65;7.60;;;;;;;17.77;100.00;100360.16;4896856;29;20111;-70
2023/05/27 06:15:22;;;;;;;11.38;7.60;;;;;;;17.53;100.00;100333.91;4897044;29;20488;-70
2023/05/27 06:17:48;;;;;;;11.18;7.70;;;;;;;17.78;100.00;100361.03;4897047;29;20028;-71
2023/05/27 06:20:13;;;;;;;11.27;7.57;;;;;;;18.01;100.00;100376.00;4897048;29;20040;-73
2023/05/27 06:22:39;;;;;;;10.05;7.70;;;;;;;17.99;100.00;100357.69;4896874;29;20472;-71
2023/05/27 06:25:05;;;;;;;8.55;7.18;;;;;;;18.21;100.00;100387.41;4897020;29;20036;-74
2023/05/27 06:27:30;;;;;;;10.13;7.50;;;;;;;17.68;100.00;100297.44;4896583;29;20547;-70
2023/05/27 06:29:56;;;;;;;13.85;7.50;;;;;;;18.03;100.00;100366.41;4896139;29;20143;-71
2023/05/27 06:32:22;;;;;;;10.85;7.10;;;;;;;18.17;100.00;100383.03;4896776;29;20104;-73
2023/05/27 06:34:47;;;;;;;12.02;7.07;;;;;;;17.76;100.00;100303.56;4896663;29;20039;-71
2023/05/27 06:37:13;;;;;;;10.15;6.40;;;;;;;18.25;100.00;100386.53;4863354;29;20037;-70
2023/05/27 06:39:38;;;;;;;12.25;6.47;;;;;;;18.14;100.00;100369.94;4896812;29;20695;-70
2023/05/27 06:42:04;;;;;;;11.93;6.82;;;;;;;18.25;100.00;100380.44;4896665;29;20032;-71
2023/05/27 06:44:29;;;;;;;9.20;6.20;;;;;;;18.27;100.00;100382.19;4896277;29;20031;-71
2023/05/27 06:46:55;;;;;;;8.73;6.25;;;;;;;18.24;100.00;100373.47;4896467;29;20048;-70
2023/05/27 06:49:20;;;;;;;8.45;5.85;;;;;;;18.41;100.00;100387.47;4896971;29;20032;-71
2023/05/27 06:51:45;;;;;;;12.20;6.93;;;;;;;18.40;100.00;100382.25;4896978;29;20120;-72
2023/05/27 06:54:12;;;;;;;7.28;6.25;;;;;;;18.41;100.00;100389.22;4863642;29;20051;-70
2023/05/27 06:56:37;;;;;;;10.77;6.78;;;;;;;18.42;100.00;100386.59;4896671;29;20097;-72
2023/05/27 06:59:03;;;;;;;11.98;6.70;;;;;;;18.13;100.00;100320.28;4896426;29;20033;-72
2023/05/27 07:01:28;;;;;;;11.38;5.80;;;;;;;18.47;100.00;100376.16;4896630;29;20551;-71
2023/05/27 07:03:54;;;;;;;8.23;5.47;;;;;;;18.50;100.00;100388.38;4896746;29;20032;-70
2023/05/27 07:06:19;;;;;;;8.45;5.63;;;;;;;18.47;100.00;100384.00;4896692;29;20040;-72
2023/05/27 07:08:45;;;;;;;8.57;5.80;;;;;;;18.42;100.00;100383.13;4896465;29;20028;-71
2023/05/27 07:11:10;;;;;;;8.05;5.88;;;;;;;18.41;100.00;100384.84;4885862;29;20024;-71
2023/05/27 07:13:36;;;;;;;9.40;5.90;;;;;;;18.43;100.00;100383.13;4887975;29;20036;-73
2023/05/27 07:16:21;;;;;;;8.38;5.70;;;;;;;18.48;100.00;100391.00;4880438;29;20029;-73
2023/05/27 07:18:46;;;;;;;11.27;6.25;;;;;;;18.53;100.00;100384.03;4869051;29;20114;-71
2023/05/27 07:21:12;;;;;;;8.57;5.47;;;;;;;18.32;100.00;100358.69;4854167;29;20044;-75
2023/05/27 07:23:37;;;;;;;8.10;5.90;;;;;;;18.39;100.00;100393.56;4841550;29;20101;-72
2023/05/27 07:26:03;;;;;;;9.13;6.18;;;;;;;18.32;100.00;100368.25;4874189;29;20519;-73
2023/05/27 07:28:28;;;;;;;8.98;6.85;;;;;;;18.40;100.00;100393.56;4864811;29;20037;-73
2023/05/27 07:30:54;;;;;;;8.55;6.18;;;;;;;18.40;100.00;100392.69;4856283;29;20129;-71
2023/05/27 07:33:19;;;;;;;8.63;6.22;;;;;;;18.32;100.00;100392.66;4856332;29;20489;-71
2023/05/27 07:35:45;;;;;;;8.63;5.45;;;;;;;17.99;100.00;100338.53;4856400;29;20037;-72
2023/05/27 07:38:10;;;;;;;7.90;5.60;;;;;;;18.18;100.00;100376.94;4856261;29;20069;-71
2023/05/27 07:40:36;;;;;;;7.93;5.45;;;;;;;18.21;100.00;100383.91;4840568;29;20033;-76
2023/05/27 07:43:01;;;;;;;6.60;5.90;;;;;;;17.84;100.00;100315.81;4856392;29;20037;-72
2023/05/27 07:45:27;;;;;;;8.82;6.38;;;;;;;18.34;100.00;100392.66;4856159;29;20046;-72
2023/05/27 07:47:52;;;;;;;7.97;5.70;;;;;;;18.32;100.00;100390.06;4856362;29;20038;-73
2023/05/27 07:50:18;;;;;;;10.77;6.65;;;;;;;18.26;100.00;100377.81;4871216;29;20518;-71
2023/05/27 07:52:43;;;;;;;9.00;5.97;;;;;;;18.30;100.00;100377.84;4877471;29;20037;-72
2023/05/27 07:55:09;;;;;;;9.88;6.32;;;;;;;18.06;100.00;100332.47;4876737;29;20488;-72
2023/05/27 07:57:34;;;;;;;9.57;5.97;;;;;;;18.34;100.00;100372.63;4877009;29;20044;-70
2023/05/27 08:00:00;;;;;;;10.20;6.18;;;;;;;18.10;100.00;100329.84;4860528;29;20393;-72
2023/05/27 08:02:26;;;;;;;11.35;5.70;;;;;;;18.21;100.00;100329.91;4829027;29;20445;-71
2023/05/27 08:04:51;;;;;;;6.35;5.10;;;;;;;18.56;100.00;100383.16;4877141;29;20036;-72
2023/05/27 08:07:17;;;;;;;10.75;5.85;;;;;;;18.66;100.00;100397.13;4877217;29;20037;-71
2023/05/27 08:09:43;;;;;;;12.25;5.90;;;;;;;18.72;100.00;100399.78;4877026;29;20055;-72
2023/05/27 08:12:08;;;;;;;7.70;6.10;;;;;;;18.79;100.00;100392.78;4877101;29;20032;-70
2023/05/27 08:14:34;;;;;;;7.47;6.45;;;;;;;18.82;100.00;100379.75;4877019;29;20031;-72
2023/05/27 08:17:00;;;;;;;9.55;6.28;;;;;;;18.95;100.00;100401.59;4843821;29;20044;-72
2023/05/27 08:19:26;;;;;;;9.98;5.70;;;;;;;18.96;100.00;100403.34;4876734;29;20419;-72
2023/05/27 08:21:52;;;;;;;7.95;5.22;;;;;;;18.88;100.00;100385.84;4876550;29;20029;-71
2023/05/27 08:24:21;;;;;;;7.00;5.40;;;;;;;19.01;100.00;100409.44;4876727;29;20415;-72
2023/05/27 08:26:47;;;;;;;10.88;5.82;;;;;;;19.05;100.00;100414.69;4876882;29;20037;-72
2023/05/27 08:29:12;;;;;;;5.75;4.70;;;;;;;19.04;100.00;100419.91;4876524;29;20539;-73
2023/05/27 08:31:38;;;;;;;7.88;5.18;;;;;;;18.98;100.00;100393.72;4877084;29;20104;-73
2023/05/27 08:34:03;;;;;;;6.32;4.53;;;;;;;19.07;100.00;100406.84;4876635;29;20104;-72
2023/05/27 08:36:29;;;;;;;6.95;3.45;;;;;;;19.15;100.00;100406.84;4876929;29;20068;-72
2023/05/27 08:38:56;;;;;;;8.40;4.07;;;;;;;18.97;100.00;100368.47;4876842;29;20033;-72
2023/05/27 08:41:22;;;;;;;8.38;3.40;;;;;;;19.19;100.00;100408.56;4876598;29;20037;-72
2023/05/27 08:43:47;;;;;;;6.03;3.40;;;;;;;19.17;100.00;100411.19;4876572;29;20393;-70
2023/05/27 08:46:13;;;;;;;5.80;3.25;;;;;;;19.18;100.00;100402.47;4876729;29;20472;-72
2023/05/27 08:48:40;;;;;;;6.53;3.72;;;;;;;19.17;100.00;100398.09;4876824;29;20033;-72
2023/05/27 08:51:08;;;;;;;8.02;3.33;;;;;;;19.25;100.00;100392.88;4876797;29;20035;-71
2023/05/27 08:53:34;;;;;;;4.57;3.05;;;;;;;19.44;100.00;100411.19;4876240;29;20037;-71
2023/05/27 08:56:01;;;;;;;7.30;3.65;;;;;;;19.45;100.00;100403.34;4876687;29;20617;-72
2023/05/27 08:58:27;;;;;;;5.70;3.42;;;;;;;19.52;100.00;100407.69;4876678;29;20116;-72
2023/05/27 09:00:53;;;;;;;4.90;3.28;;;;;;;19.54;100.00;100402.47;4876669;29;20033;-74
2023/05/27 09:03:19;;;;;;;6.88;3.22;;;;;;;19.54;100.00;100403.34;4876639;29;20037;-72
2023/05/27 09:05:44;;;;;;;5.40;3.40;;;;;;;19.44;100.00;100393.75;4876229;29;20381;-73
2023/05/27 09:08:10;;;;;;;4.85;3.35;;;;;;;19.41;100.00;100401.59;4876371;29;20036;-71
2023/05/27 09:10:39;;;;;;;5.72;3.50;;;;;;;19.30;100.00;100391.16;4876585;29;20480;-71
2023/05/27 09:13:05;;;;;;;6.18;3.40;;;;;;;19.26;100.00;100399.84;4843472;29;20460;-71
2023/05/27 09:15:32;;;;;;;5.03;3.42;;;;;;;19.25;100.00;100395.47;4876801;29;20091;-72
2023/05/27 09:17:57;;;;;;;7.03;3.83;;;;;;;19.35;100.00;100384.16;4876640;29;20037;-71
2023/05/27 09:20:27;;;;;;;4.65;3.80;;;;;;;18.93;100.00;100315.25;4876693;29;20037;-70
2023/05/27 09:23:03;;;;;;;5.63;3.53;;;;;;;19.42;100.00;100382.41;4876464;29;20029;-70
2023/05/27 09:25:29;;;;;;;3.92;3.42;;;;;;;19.46;100.00;100372.78;4876515;29;20037;-77
2023/05/27 09:27:56;;;;;;;8.15;4.38;;;;;;;19.14;100.00;100303.91;4876434;29;20039;-71
2023/05/27 09:30:22;;;;;;;6.82;3.80;;;;;;;19.53;100.00;100370.16;4876011;29;20057;-72
2023/05/27 09:32:48;;;;;;;5.43;3.30;;;;;;;19.49;100.00;100371.06;4859595;29;20033;-71
2023/05/27 09:35:16;;;;;;;5.50;3.53;;;;;;;19.07;100.00;100310.88;4879332;29;20119;-72
2023/05/27 09:37:43;;;;;;;5.55;3.33;;;;;;;19.51;100.00;100369.28;4879867;29;20093;-71
2023/05/27 09:40:15;;;;;;;3.85;3.33;;;;;;;19.53;100.00;100367.53;4879695;29;20052;-72
2023/05/27 09:42:45;;;;;;;4.72;3.25;;;;;;;19.58;100.00;100361.41;4879289;29;20484;-70
2023/05/27 09:45:13;;;;;;;4.47;3.45;;;;;;;19.65;100.00;100360.53;4879562;29;20035;-72
2023/05/27 09:47:40;;;;;;;4.90;3.67;;;;;;;19.91;100.00;100367.50;4879020;29;20045;-72
2023/05/27 09:50:09;;;;;;;6.50;3.70;;;;;;;20.00;100.00;100355.25;4879416;29;20040;-73
2023/05/27 09:52:37;;;;;;;7.82;3.50;;;;;;;20.04;100.00;100358.72;4879472;29;20033;-72
2023/05/27 09:55:02;;;;;;;4.53;3.50;;;;;;;20.23;100.00;100364.75;4879540;29;20479;-71
2023/05/27 09:57:29;;;;;;;5.03;3.80;;;;;;;20.37;100.00;100364.69;4879349;29;20040;-71
2023/05/27 09:59:55;;;;;;;7.50;4.40;;;;;;;19.80;100.00;100244.38;4879250;29;20424;-71
2023/05/27 10:02:22;;;;;;;7.65;4.22;;;;;;;20.62;100.00;100362.81;4878605;29;20036;-72
2023/05/27 10:04:49;;;;;;;4.47;3.35;;;;;;;20.70;100.00;100357.50;4897162;29;20057;-72
2023/05/27 10:07:18;;;;;;;7.72;3.35;;;;;;;21.12;100.00;100360.72;4880624;29;20044;-71
2023/05/27 10:09:44;;;;;;;5.80;3.30;;;;;;;21.47;100.00;100362.16;4897717;29;20104;-70
2023/05/27 10:12:10;;;;;;;5.43;3.30;;;;;;;21.53;98.60;100334.09;4897771;29;20472;-70
2023/05/27 10:14:35;;;;;;;6.07;3.80;;;;;;;21.52;97.27;100279.81;4897584;29;20055;-71
2023/05/27 10:17:01;;;;;;;4.65;3.40;;;;;;;22.15;96.04;100360.56;4897558;29;20032;-71
2023/05/27 10:19:26;;;;;;;6.38;4.15;;;;;;;22.10;94.52;100325.56;4897587;29;20040;-75
2023/05/27 10:21:53;;;;;;;8.15;3.50;;;;;;;22.32;94.52;100352.44;4897742;29;20035;-71
2023/05/27 10:24:18;;;;;;;5.32;3.65;;;;;;;22.20;94.58;100311.41;4888814;29;20206;-70
2023/05/27 10:26:45;;;;;;;7.13;3.60;;;;;;;22.35;94.07;100299.78;4891154;29;20542;-70
2023/05/27 10:29:14;;;;;;;6.93;3.53;;;;;;;22.88;90.63;100344.66;4892393;29;20052;-69
2023/05/27 10:31:48;;;;;;;7.60;3.78;;;;;;;22.97;93.65;100319.03;4878066;29;20092;-72
2023/05/27 10:34:14;;;;;;;7.43;3.83;;;;;;;23.09;90.34;100327.63;4896566;29;20083;-72
2023/05/27 10:36:39;;;;;;;7.03;3.40;;;;;;;23.29;88.75;100330.81;4896526;29;20384;-75
2023/05/27 10:39:19;;;;;;;4.75;3.50;;;;;;;23.31;89.53;100340.44;4896562;29;20056;-75
2023/05/27 10:41:54;;;;;;;;;;;;;;;23.22;91.23;100332.72;4893205;29;20033;-73
2023/05/27 10:44:34;;;;;;;4.95;3.75;;;;;;;23.40;89.60;100340.28;4893401;29;19923;-73
2023/05/27 10:47:04;;;;;;;7.80;4.05;;;;;;;23.22;87.44;100270.34;4881936;29;20039;-74
2023/05/27 10:49:38;;;;;;;5.97;3.78;;;;;;;23.64;89.18;100330.19;4896056;29;20044;-74
2023/05/27 10:52:13;;;;;;;9.40;4.00;;;;;;;23.66;88.66;100323.09;4895011;29;20029;-70
2023/05/27 10:54:43;;;;;;;5.57;4.00;;;;;;;23.32;88.48;100271.06;4890489;29;20032;-73
2023/05/27 10:57:09;;;;;;;4.80;3.63;;;;;;;23.26;87.87;100289.59;4896191;29;20472;-73
2023/05/27 10:59:50;;;;;;;7.05;3.70;;;;;;;23.17;89.56;100259.03;4896078;29;20038;-73
2023/05/27 11:02:17;;;;;;;5.50;4.18;;;;;;;23.77;89.12;100317.63;4877696;29;20037;-76
2023/05/27 11:04:42;;;;;;;6.25;4.40;;;;;;;23.99;88.89;100311.91;4891604;29;20033;-74
2023/05/27 11:07:08;;;;;;;6.65;4.22;;;;;;;23.52;86.78;100294.38;4896231;29;20048;-74
2023/05/27 11:09:44;;;;;;;5.72;3.95;;;;;;;23.48;90.22;100297.09;4896340;29;20492;-74
2023/05/27 11:12:16;;;;;;;6.25;4.25;;;;;;;23.00;89.50;100180.34;4896150;29;20064;-75